sensor_id;sensor_type;location;lat;lon;timestamp;pressure;altitude;pressure_sealevel;temperature;humidity
62680;BME280;68213;40.528;44.712;2023-07-31T00:00:36;80346.59;;;13.85;80.29
62680;BME280;68213;40.528;44.712;2023-07-31T00:01:36;80343.84;;;13.83;80.06
62680;BME280;68213;40.528;44.712;2023-07-31T00:02:37;80346.59;;;13.85;80.20
62680;BME280;68213;40.528;44.712;2023-07-31T00:03:38;80344.63;;;13.86;80.39
62680;BME280;68213;40.528;44.712;2023-07-31T00:04:39;80357.16;;;13.85;80.11
62680;BME280;68213;40.528;44.712;2023-07-31T00:05:39;80351.88;;;13.85;80.61
62680;BME280;68213;40.528;44.712;2023-07-31T00:06:40;80355.88;;;13.86;80.43
62680;BME280;68213;40.528;44.712;2023-07-31T00:07:41;80341.16;;;13.81;80.32
62680;BME280;68213;40.528;44.712;2023-07-31T00:08:41;80342.25;;;13.76;80.60
62680;BME280;68213;40.528;44.712;2023-07-31T00:09:42;80350.69;;;13.88;80.52
62680;BME280;68213;40.528;44.712;2023-07-31T00:10:43;80357.25;;;13.87;80.24
62680;BME280;68213;40.528;44.712;2023-07-31T00:11:44;80349.09;;;13.81;80.52
62680;BME280;68213;40.528;44.712;2023-07-31T00:12:45;80352.16;;;13.75;80.34
62680;BME280;68213;40.528;44.712;2023-07-31T00:13:46;80353.06;;;13.82;80.52
62680;BME280;68213;40.528;44.712;2023-07-31T00:14:47;80362.28;;;13.81;80.62
62680;BME280;68213;40.528;44.712;2023-07-31T00:15:47;80349.00;;;13.79;80.52
62680;BME280;68213;40.528;44.712;2023-07-31T00:16:48;80353.06;;;13.82;80.52
62680;BME280;68213;40.528;44.712;2023-07-31T00:17:49;80353.06;;;13.82;80.74
62680;BME280;68213;40.528;44.712;2023-07-31T00:18:49;80359.66;;;13.81;80.79
62680;BME280;68213;40.528;44.712;2023-07-31T00:19:50;80361.69;;;13.83;80.92
62680;BME280;68213;40.528;44.712;2023-07-31T00:20:51;80355.72;;;13.82;80.79
62680;BME280;68213;40.528;44.712;2023-07-31T00:21:51;80350.41;;;13.82;80.73
62680;BME280;68213;40.528;44.712;2023-07-31T00:22:55;80343.63;;;13.77;80.73
62680;BME280;68213;40.528;44.712;2023-07-31T00:23:56;80347.94;;;13.86;80.76
62680;BME280;68213;40.528;44.712;2023-07-31T00:24:59;80352.63;;;13.88;80.59
62680;BME280;68213;40.528;44.712;2023-07-31T00:26:00;80339.94;;;13.84;80.58
62680;BME280;68213;40.528;44.712;2023-07-31T00:27:01;80348.03;;;13.88;80.35
62680;BME280;68213;40.528;44.712;2023-07-31T00:28:02;80344.88;;;13.92;80.36
62680;BME280;68213;40.528;44.712;2023-07-31T00:29:02;80346.75;;;13.89;80.60
62680;BME280;68213;40.528;44.712;2023-07-31T00:30:03;80351.50;;;13.93;80.33
62680;BME280;68213;40.528;44.712;2023-07-31T00:31:04;80342.91;;;13.92;80.56
62680;BME280;68213;40.528;44.712;2023-07-31T00:32:06;80348.19;;;13.92;80.36
62680;BME280;68213;40.528;44.712;2023-07-31T00:33:08;80350.91;;;13.94;80.36
62680;BME280;68213;40.528;44.712;2023-07-31T00:34:09;80342.22;;;13.92;80.32
62680;BME280;68213;40.528;44.712;2023-07-31T00:35:10;80346.81;;;13.91;80.05
62680;BME280;68213;40.528;44.712;2023-07-31T00:36:10;80339.84;;;13.82;80.24
62680;BME280;68213;40.528;44.712;2023-07-31T00:37:11;80344.09;;;13.89;80.13
62680;BME280;68213;40.528;44.712;2023-07-31T00:38:12;80347.00;;;13.95;79.69
62680;BME280;68213;40.528;44.712;2023-07-31T00:39:13;80349.63;;;13.95;80.00
62680;BME280;68213;40.528;44.712;2023-07-31T00:40:14;80350.22;;;13.94;80.23
62680;BME280;68213;40.528;44.712;2023-07-31T00:41:17;80350.41;;;13.98;80.56
62680;BME280;68213;40.528;44.712;2023-07-31T00:42:18;80350.91;;;13.94;79.76
62680;BME280;68213;40.528;44.712;2023-07-31T00:43:19;80352.34;;;13.98;79.69
62680;BME280;68213;40.528;44.712;2023-07-31T00:44:19;80354.94;;;13.95;80.06
62680;BME280;68213;40.528;44.712;2023-07-31T00:45:22;80347.66;;;13.96;79.83
62680;BME280;68213;40.528;44.712;2023-07-31T00:46:24;80356.34;;;13.99;79.86
62680;BME280;68213;40.528;44.712;2023-07-31T00:47:25;80353.03;;;13.98;79.85
62680;BME280;68213;40.528;44.712;2023-07-31T00:48:26;80331.41;;;13.86;79.68
62680;BME280;68213;40.528;44.712;2023-07-31T00:49:27;80345.88;;;14.01;79.26
62680;BME280;68213;40.528;44.712;2023-07-31T00:50:28;80348.59;;;14.03;79.52
62680;BME280;68213;40.528;44.712;2023-07-31T00:51:29;80350.53;;;14.02;79.47
62680;BME280;68213;40.528;44.712;2023-07-31T00:52:30;80347.91;;;14.02;79.40
62680;BME280;68213;40.528;44.712;2023-07-31T00:53:31;80350.00;;;14.06;78.89
62680;BME280;68213;40.528;44.712;2023-07-31T00:54:32;80348.75;;;14.07;79.13
62680;BME280;68213;40.528;44.712;2023-07-31T00:55:33;80350.19;;;14.10;78.60
62680;BME280;68213;40.528;44.712;2023-07-31T00:56:34;80346.94;;;14.11;78.77
62680;BME280;68213;40.528;44.712;2023-07-31T00:57:36;80355.38;;;14.08;78.57
62680;BME280;68213;40.528;44.712;2023-07-31T00:58:37;80344.81;;;14.08;78.61
62680;BME280;68213;40.528;44.712;2023-07-31T00:59:38;80348.13;;;14.08;78.60
62680;BME280;68213;40.528;44.712;2023-07-31T01:00:38;80352.84;;;14.10;78.66
62680;BME280;68213;40.528;44.712;2023-07-31T01:01:40;80351.56;;;14.11;78.77
62680;BME280;68213;40.528;44.712;2023-07-31T01:02:41;80346.94;;;14.11;78.71
62680;BME280;68213;40.528;44.712;2023-07-31T01:03:41;80346.09;;;14.07;78.96
62680;BME280;68213;40.528;44.712;2023-07-31T01:04:43;80343.38;;;14.05;79.34
62680;BME280;68213;40.528;44.712;2023-07-31T01:06:06;80344.22;;;14.09;79.51
62680;BME280;68213;40.528;44.712;2023-07-31T01:08:27;80346.09;;;14.07;79.54
62680;BME280;68213;40.528;44.712;2023-07-31T01:10:56;80339.88;;;14.00;80.54
62680;BME280;68213;40.528;44.712;2023-07-31T01:12:03;80343.38;;;14.05;79.74
62680;BME280;68213;40.528;44.712;2023-07-31T01:13:05;80338.59;;;14.01;79.39
62680;BME280;68213;40.528;44.712;2023-07-31T01:14:06;80339.44;;;14.06;79.16
62680;BME280;68213;40.528;44.712;2023-07-31T01:15:08;80340.19;;;14.08;79.03
62680;BME280;68213;40.528;44.712;2023-07-31T01:16:12;80346.19;;;14.09;79.04
62680;BME280;68213;40.528;44.712;2023-07-31T01:17:13;80346.25;;;14.11;79.12
62680;BME280;68213;40.528;44.712;2023-07-31T01:18:13;80345.66;;;14.12;78.73
62680;BME280;68213;40.528;44.712;2023-07-31T01:19:15;80344.97;;;14.12;78.63
62680;BME280;68213;40.528;44.712;2023-07-31T01:20:23;80341.88;;;14.18;78.76
62680;BME280;68213;40.528;44.712;2023-07-31T01:26:13;80358.34;;;14.16;78.67
62680;BME280;68213;40.528;44.712;2023-07-31T01:27:22;80350.34;;;14.14;78.71
62680;BME280;68213;40.528;44.712;2023-07-31T01:29:48;80359.78;;;14.19;78.72
62680;BME280;68213;40.528;44.712;2023-07-31T01:30:50;80357.22;;;14.21;77.75
62680;BME280;68213;40.528;44.712;2023-07-31T01:31:53;80354.75;;;14.25;78.10
62680;BME280;68213;40.528;44.712;2023-07-31T01:32:56;80346.88;;;14.27;77.58
62680;BME280;68213;40.528;44.712;2023-07-31T01:34:00;80330.56;;;14.15;77.75
62680;BME280;68213;40.528;44.712;2023-07-31T01:35:01;80356.16;;;14.28;77.66
62680;BME280;68213;40.528;44.712;2023-07-31T01:36:02;80356.91;;;14.31;77.51
62680;BME280;68213;40.528;44.712;2023-07-31T01:37:06;80353.53;;;14.28;77.90
62680;BME280;68213;40.528;44.712;2023-07-31T01:38:07;80354.88;;;14.30;77.77
62680;BME280;68213;40.528;44.712;2023-07-31T01:39:07;80359.56;;;14.31;77.49
62680;BME280;68213;40.528;44.712;2023-07-31T01:40:09;80353.00;;;14.32;77.61
62680;BME280;68213;40.528;44.712;2023-07-31T01:41:11;80348.22;;;14.28;77.46
62680;BME280;68213;40.528;44.712;2023-07-31T01:42:12;80356.34;;;14.33;77.74
62680;BME280;68213;40.528;44.712;2023-07-31T01:43:12;80357.09;;;14.35;77.36
62680;BME280;68213;40.528;44.712;2023-07-31T01:44:13;80355.81;;;14.36;77.85
62680;BME280;68213;40.528;44.712;2023-07-31T01:45:14;80359.13;;;14.37;77.74
62680;BME280;68213;40.528;44.712;2023-07-31T01:46:14;80357.13;;;14.37;77.57
62680;BME280;68213;40.528;44.712;2023-07-31T01:47:15;80335.53;;;14.25;77.89
62680;BME280;68213;40.528;44.712;2023-07-31T01:48:16;80356.56;;;14.39;77.90
62680;BME280;68213;40.528;44.712;2023-07-31T01:50:21;80364.63;;;14.43;77.21
62680;BME280;68213;40.528;44.712;2023-07-31T01:51:22;80363.03;;;14.36;77.46
62680;BME280;68213;40.528;44.712;2023-07-31T01:52:22;80362.38;;;14.35;77.19
62680;BME280;68213;40.528;44.712;2023-07-31T01:53:23;80367.66;;;14.35;77.29
62680;BME280;68213;40.528;44.712;2023-07-31T01:54:24;80362.72;;;14.27;77.75
62680;BME280;68213;40.528;44.712;2023-07-31T01:55:25;80365.53;;;14.32;77.51
62680;BME280;68213;40.528;44.712;2023-07-31T01:56:26;80366.31;;;14.34;77.34
62680;BME280;68213;40.528;44.712;2023-07-31T01:57:27;80359.72;;;14.35;77.50
62680;BME280;68213;40.528;44.712;2023-07-31T01:58:30;80363.75;;;14.36;77.49
62680;BME280;68213;40.528;44.712;2023-07-31T01:59:31;80364.41;;;14.37;77.91
62680;BME280;68213;40.528;44.712;2023-07-31T02:00:32;80362.44;;;14.37;77.35
62680;BME280;68213;40.528;44.712;2023-07-31T02:01:32;80365.78;;;14.38;77.33
62680;BME280;68213;40.528;44.712;2023-07-31T02:02:33;80365.69;;;14.36;77.52
62680;BME280;68213;40.528;44.712;2023-07-31T02:03:34;80364.41;;;14.37;77.49
62680;BME280;68213;40.528;44.712;2023-07-31T02:04:35;80365.16;;;14.39;77.68
62680;BME280;68213;40.528;44.712;2023-07-31T02:05:35;80360.47;;;14.38;77.91
62680;BME280;68213;40.528;44.712;2023-07-31T02:06:36;80363.78;;;14.38;77.71
62680;BME280;68213;40.528;44.712;2023-07-31T02:07:37;80357.91;;;14.40;77.51
62680;BME280;68213;40.528;44.712;2023-07-31T02:08:38;80364.56;;;14.41;77.24
62680;BME280;68213;40.528;44.712;2023-07-31T02:09:38;80362.69;;;14.43;76.97
62680;BME280;68213;40.528;44.712;2023-07-31T02:10:39;80371.38;;;14.46;76.99
62680;BME280;68213;40.528;44.712;2023-07-31T02:11:40;80354.59;;;14.39;76.63
62680;BME280;68213;40.528;44.712;2023-07-31T02:12:41;80371.50;;;14.50;76.63
62680;BME280;68213;40.528;44.712;2023-07-31T02:13:41;80367.59;;;14.51;76.67
62680;BME280;68213;40.528;44.712;2023-07-31T02:14:42;80370.97;;;14.54;76.55
62680;BME280;68213;40.528;44.712;2023-07-31T02:15:43;80356.69;;;14.43;76.56
62680;BME280;68213;40.528;44.712;2023-07-31T02:16:45;80370.22;;;14.51;76.56
62680;BME280;68213;40.528;44.712;2023-07-31T02:17:46;80363.66;;;14.52;77.04
62680;BME280;68213;40.528;44.712;2023-07-31T02:19:55;80375.75;;;14.57;76.62
62680;BME280;68213;40.528;44.712;2023-07-31T02:20:56;80373.03;;;14.55;77.11
62680;BME280;68213;40.528;44.712;2023-07-31T02:21:57;80378.38;;;14.57;76.78
62680;BME280;68213;40.528;44.712;2023-07-31T02:22:58;80375.16;;;14.59;76.46
62680;BME280;68213;40.528;44.712;2023-07-31T02:23:59;80379.84;;;14.60;76.38
62680;BME280;68213;40.528;44.712;2023-07-31T02:24:59;80376.59;;;14.62;76.72
62680;BME280;68213;40.528;44.712;2023-07-31T02:26:00;80375.06;;;14.57;76.81
62680;BME280;68213;40.528;44.712;2023-07-31T02:27:01;80375.91;;;14.62;76.93
62680;BME280;68213;40.528;44.712;2023-07-31T02:28:01;80370.63;;;14.62;76.67
62680;BME280;68213;40.528;44.712;2023-07-31T02:29:02;80367.22;;;14.59;76.64
62680;BME280;68213;40.528;44.712;2023-07-31T02:30:03;80372.22;;;14.69;76.93
62680;BME280;68213;40.528;44.712;2023-07-31T02:31:04;80378.94;;;14.72;76.84
62680;BME280;68213;40.528;44.712;2023-07-31T02:32:05;80382.97;;;14.73;76.74
62680;BME280;68213;40.528;44.712;2023-07-31T02:33:06;80379.69;;;14.74;76.79
62680;BME280;68213;40.528;44.712;2023-07-31T02:34:07;80378.41;;;14.75;76.99
62680;BME280;68213;40.528;44.712;2023-07-31T02:35:08;80373.88;;;14.78;77.01
62680;BME280;68213;40.528;44.712;2023-07-31T02:36:08;80382.28;;;14.72;77.54
62680;BME280;68213;40.528;44.712;2023-07-31T02:37:09;80376.91;;;14.70;77.71
62680;BME280;68213;40.528;44.712;2023-07-31T02:38:10;80381.81;;;14.78;76.96
62680;BME280;68213;40.528;44.712;2023-07-31T02:39:10;80378.66;;;14.82;76.79
62680;BME280;68213;40.528;44.712;2023-07-31T02:40:11;80382.13;;;14.86;76.71
62680;BME280;68213;40.528;44.712;2023-07-31T02:41:12;80380.09;;;14.85;77.12
62680;BME280;68213;40.528;44.712;2023-07-31T02:42:14;80376.28;;;14.90;77.08
62680;BME280;68213;40.528;44.712;2023-07-31T02:43:14;80380.38;;;14.93;77.18
62680;BME280;68213;40.528;44.712;2023-07-31T02:44:15;80380.59;;;14.99;77.00
62680;BME280;68213;40.528;44.712;2023-07-31T02:45:16;80385.34;;;15.03;76.99
62680;BME280;68213;40.528;44.712;2023-07-31T02:46:17;80372.28;;;15.07;76.42
62680;BME280;68213;40.528;44.712;2023-07-31T02:47:18;80373.78;;;15.12;76.22
62680;BME280;68213;40.528;44.712;2023-07-31T02:48:19;80363.56;;;15.04;76.72
62680;BME280;68213;40.528;44.712;2023-07-31T02:49:19;80369.31;;;15.17;76.70
62680;BME280;68213;40.528;44.712;2023-07-31T02:50:20;80376.63;;;15.18;77.83
62680;BME280;68213;40.528;44.712;2023-07-31T02:51:21;80377.19;;;15.15;79.63
62680;BME280;68213;40.528;44.712;2023-07-31T02:52:21;80373.69;;;15.10;79.94
62680;BME280;68213;40.528;44.712;2023-07-31T02:53:22;80375.38;;;15.01;81.53
62680;BME280;68213;40.528;44.712;2023-07-31T02:54:23;80355.59;;;14.84;80.97
62680;BME280;68213;40.528;44.712;2023-07-31T02:55:24;80382.72;;;15.03;78.50
62680;BME280;68213;40.528;44.712;2023-07-31T02:56:25;80368.31;;;15.08;77.90
62680;BME280;68213;40.528;44.712;2023-07-31T02:57:25;80373.16;;;15.14;77.81
62680;BME280;68213;40.528;44.712;2023-07-31T02:58:26;80377.84;;;15.15;78.47
62680;BME280;68213;40.528;44.712;2023-07-31T02:59:28;80375.28;;;15.17;78.06
62680;BME280;68213;40.528;44.712;2023-07-31T03:00:28;80372.31;;;15.27;77.56
62680;BME280;68213;40.528;44.712;2023-07-31T03:01:29;80373.66;;;15.28;78.81
62680;BME280;68213;40.528;44.712;2023-07-31T03:02:30;80376.94;;;15.27;78.36
62680;BME280;68213;40.528;44.712;2023-07-31T03:03:30;80367.84;;;15.32;78.03
62680;BME280;68213;40.528;44.712;2023-07-31T03:04:31;80372.06;;;15.39;77.83
62680;BME280;68213;40.528;44.712;2023-07-31T03:05:34;80369.69;;;15.47;77.46
62680;BME280;68213;40.528;44.712;2023-07-31T03:06:35;80355.63;;;15.43;77.94
62680;BME280;68213;40.528;44.712;2023-07-31T03:07:36;80363.94;;;15.53;77.38
62680;BME280;68213;40.528;44.712;2023-07-31T03:08:36;80366.69;;;15.57;77.25
62680;BME280;68213;40.528;44.712;2023-07-31T03:09:37;80367.41;;;15.58;77.96
62680;BME280;68213;40.528;44.712;2023-07-31T03:10:38;80364.88;;;15.62;77.40
62680;BME280;68213;40.528;44.712;2023-07-31T03:11:38;80363.03;;;15.66;76.34
62680;BME280;68213;40.528;44.712;2023-07-31T03:12:40;80369.09;;;15.69;76.81
62680;BME280;68213;40.528;44.712;2023-07-31T03:13:41;80365.31;;;15.74;76.78
62680;BME280;68213;40.528;44.712;2023-07-31T03:14:41;80373.31;;;15.76;77.20
62680;BME280;68213;40.528;44.712;2023-07-31T03:15:42;80356.47;;;15.67;77.80
62680;BME280;68213;40.528;44.712;2023-07-31T03:16:44;80364.06;;;15.77;78.03
62680;BME280;68213;40.528;44.712;2023-07-31T03:17:44;80365.66;;;15.84;76.28
62680;BME280;68213;40.528;44.712;2023-07-31T03:18:45;80367.94;;;15.94;76.34
62680;BME280;68213;40.528;44.712;2023-07-31T03:19:46;80369.25;;;15.93;76.71
62680;BME280;68213;40.528;44.712;2023-07-31T03:20:48;80369.31;;;15.95;75.81
62680;BME280;68213;40.528;44.712;2023-07-31T03:21:48;80364.16;;;15.99;75.77
62680;BME280;68213;40.528;44.712;2023-07-31T03:22:52;80369.47;;;15.99;75.82
62680;BME280;68213;40.528;44.712;2023-07-31T03:23:53;80367.47;;;16.00;76.16
62680;BME280;68213;40.528;44.712;2023-07-31T03:24:53;80351.94;;;15.90;76.31
62680;BME280;68213;40.528;44.712;2023-07-31T03:26:01;80365.44;;;15.98;76.54
62680;BME280;68213;40.528;44.712;2023-07-31T03:27:03;80373.06;;;16.08;76.00
62680;BME280;68213;40.528;44.712;2023-07-31T03:28:04;80370.53;;;16.12;76.09
62680;BME280;68213;40.528;44.712;2023-07-31T03:29:05;80370.59;;;16.14;75.93
62680;BME280;68213;40.528;44.712;2023-07-31T03:30:06;80361.16;;;16.09;77.00
62680;BME280;68213;40.528;44.712;2023-07-31T03:31:07;80367.06;;;16.08;77.22
62680;BME280;68213;40.528;44.712;2023-07-31T03:32:08;80367.06;;;16.08;77.52
62680;BME280;68213;40.528;44.712;2023-07-31T03:33:09;80366.53;;;16.11;77.03
62680;BME280;68213;40.528;44.712;2023-07-31T03:34:10;80363.88;;;16.11;77.77
62680;BME280;68213;40.528;44.712;2023-07-31T03:35:10;80365.91;;;16.13;78.38
62680;BME280;68213;40.528;44.712;2023-07-31T03:36:11;80364.47;;;16.10;77.98
62680;BME280;68213;40.528;44.712;2023-07-31T03:37:12;80361.16;;;16.09;79.28
62680;BME280;68213;40.528;44.712;2023-07-31T03:38:13;80362.44;;;16.08;79.56
62680;BME280;68213;40.528;44.712;2023-07-31T03:39:14;80366.38;;;16.07;79.18
62680;BME280;68213;40.528;44.712;2023-07-31T03:40:14;80359.53;;;16.00;79.56
62680;BME280;68213;40.528;44.712;2023-07-31T03:41:15;80361.63;;;16.04;80.95
62680;BME280;68213;40.528;44.712;2023-07-31T03:42:16;80366.31;;;16.05;79.37
62680;BME280;68213;40.528;44.712;2023-07-31T03:43:17;80368.97;;;16.05;78.89
62680;BME280;68213;40.528;44.712;2023-07-31T03:44:18;80365.66;;;16.05;77.49
62680;BME280;68213;40.528;44.712;2023-07-31T03:45:18;80363.06;;;16.07;77.65
62680;BME280;68213;40.528;44.712;2023-07-31T03:46:20;80361.91;;;16.12;76.68
62680;BME280;68213;40.528;44.712;2023-07-31T03:47:21;80368.63;;;16.15;76.22
62680;BME280;68213;40.528;44.712;2023-07-31T03:48:22;80365.28;;;16.14;76.32
62680;BME280;68213;40.528;44.712;2023-07-31T03:49:23;80363.94;;;16.13;77.83
62680;BME280;68213;40.528;44.712;2023-07-31T03:50:24;80364.06;;;16.17;77.64
62680;BME280;68213;40.528;44.712;2023-07-31T03:51:25;80365.44;;;16.18;76.56
62680;BME280;68213;40.528;44.712;2023-07-31T03:52:26;80364.25;;;16.24;76.61
62680;BME280;68213;40.528;44.712;2023-07-31T03:53:26;80363.78;;;16.29;76.30
62680;BME280;68213;40.528;44.712;2023-07-31T03:54:27;80356.50;;;16.30;75.23
62680;BME280;68213;40.528;44.712;2023-07-31T03:55:28;80360.63;;;16.35;74.18
62680;BME280;68213;40.528;44.712;2023-07-31T03:56:31;80358.03;;;16.37;74.62
62680;BME280;68213;40.528;44.712;2023-07-31T03:57:32;80359.47;;;16.40;74.57
62680;BME280;68213;40.528;44.712;2023-07-31T03:58:34;80349.59;;;16.43;74.24
62680;BME280;68213;40.528;44.712;2023-07-31T03:59:36;80354.28;;;16.44;74.48
62680;BME280;68213;40.528;44.712;2023-07-31T04:00:40;80354.22;;;16.42;74.25
62680;BME280;68213;40.528;44.712;2023-07-31T04:01:41;80354.16;;;16.40;73.92
62680;BME280;68213;40.528;44.712;2023-07-31T04:02:42;80358.22;;;16.43;73.97
62680;BME280;68213;40.528;44.712;2023-07-31T04:03:43;80354.22;;;16.42;73.83
62680;BME280;68213;40.528;44.712;2023-07-31T04:04:44;80363.53;;;16.43;73.09
62680;BME280;68213;40.528;44.712;2023-07-31T04:05:44;80358.22;;;16.43;73.70
62680;BME280;68213;40.528;44.712;2023-07-31T04:06:45;80358.97;;;16.46;73.75
62680;BME280;68213;40.528;44.712;2023-07-31T04:07:46;80355.75;;;16.49;73.05
62680;BME280;68213;40.528;44.712;2023-07-31T04:08:48;80352.56;;;16.53;74.34
62680;BME280;68213;40.528;44.712;2023-07-31T04:09:49;80352.06;;;16.59;75.83
62680;BME280;68213;40.528;44.712;2023-07-31T04:10:50;80353.38;;;16.58;77.37
62680;BME280;68213;40.528;44.712;2023-07-31T04:11:51;80354.88;;;16.63;76.07
62680;BME280;68213;40.528;44.712;2023-07-31T04:12:51;80350.72;;;16.58;75.25
62680;BME280;68213;40.528;44.712;2023-07-31T04:13:52;80361.66;;;16.68;73.57
62680;BME280;68213;40.528;44.712;2023-07-31T04:14:53;80345.06;;;16.68;72.93
62680;BME280;68213;40.528;44.712;2023-07-31T04:15:53;80354.00;;;16.78;73.63
62680;BME280;68213;40.528;44.712;2023-07-31T04:16:54;80359.41;;;16.83;72.48
62680;BME280;68213;40.528;44.712;2023-07-31T04:17:55;80350.16;;;16.84;72.41
62680;BME280;68213;40.528;44.712;2023-07-31T04:18:56;80353.56;;;16.86;73.51
62680;BME280;68213;40.528;44.712;2023-07-31T04:19:56;80360.16;;;16.85;75.25
62680;BME280;68213;40.528;44.712;2023-07-31T04:20:58;80352.88;;;16.86;74.18
62680;BME280;68213;40.528;44.712;2023-07-31T04:21:59;80355.47;;;16.84;73.81
62680;BME280;68213;40.528;44.712;2023-07-31T04:22:59;80361.03;;;16.92;73.10
62680;BME280;68213;40.528;44.712;2023-07-31T04:24:00;80361.13;;;16.94;72.45
62680;BME280;68213;40.528;44.712;2023-07-31T04:25:01;80355.28;;;17.00;71.07
62680;BME280;68213;40.528;44.712;2023-07-31T04:26:02;80358.06;;;17.04;71.41
62680;BME280;68213;40.528;44.712;2023-07-31T04:27:03;80352.75;;;17.04;72.53
62680;BME280;68213;40.528;44.712;2023-07-31T04:28:04;80352.94;;;17.10;72.03
62680;BME280;68213;40.528;44.712;2023-07-31T04:29:04;80349.19;;;16.95;71.87
62680;BME280;68213;40.528;44.712;2023-07-31T04:30:06;80339.88;;;16.94;72.15
62680;BME280;68213;40.528;44.712;2023-07-31T04:31:07;80356.78;;;17.05;71.23
62680;BME280;68213;40.528;44.712;2023-07-31T04:32:08;80352.13;;;17.05;70.38
62680;BME280;68213;40.528;44.712;2023-07-31T04:33:08;80357.06;;;17.15;70.36
62680;BME280;68213;40.528;44.712;2023-07-31T04:34:09;80354.72;;;17.25;71.50
62680;BME280;68213;40.528;44.712;2023-07-31T04:35:11;80351.59;;;17.33;71.45
62680;BME280;68213;40.528;44.712;2023-07-31T04:36:15;80358.97;;;17.35;71.45
62680;BME280;68213;40.528;44.712;2023-07-31T04:37:15;80358.59;;;17.22;70.30
62680;BME280;68213;40.528;44.712;2023-07-31T04:38:16;80356.16;;;17.31;69.63
62680;BME280;68213;40.528;44.712;2023-07-31T04:39:17;80362.28;;;17.35;70.42
62680;BME280;68213;40.528;44.712;2023-07-31T04:40:18;80356.91;;;17.33;70.63
62680;BME280;68213;40.528;44.712;2023-07-31T04:41:19;80357.75;;;17.40;70.04
62680;BME280;68213;40.528;44.712;2023-07-31T04:43:23;80358.25;;;17.34;70.60
62680;BME280;68213;40.528;44.712;2023-07-31T04:44:24;80359.06;;;17.39;71.92
62680;BME280;68213;40.528;44.712;2023-07-31T04:45:25;80355.91;;;17.44;72.60
62680;BME280;68213;40.528;44.712;2023-07-31T04:46:26;80358.72;;;17.51;72.29
62680;BME280;68213;40.528;44.712;2023-07-31T04:47:26;80359.97;;;17.48;70.77
62680;BME280;68213;40.528;44.712;2023-07-31T04:48:27;80360.09;;;17.52;70.94
62680;BME280;68213;40.528;44.712;2023-07-31T04:49:28;80362.22;;;17.57;70.84
62680;BME280;68213;40.528;44.712;2023-07-31T04:50:28;80362.78;;;17.54;70.06
62680;BME280;68213;40.528;44.712;2023-07-31T04:51:30;80365.16;;;17.43;70.97
62680;BME280;68213;40.528;44.712;2023-07-31T04:52:31;80360.66;;;17.48;70.54
62680;BME280;68213;40.528;44.712;2023-07-31T04:53:32;80362.78;;;17.54;70.84
62680;BME280;68213;40.528;44.712;2023-07-31T04:54:33;80364.13;;;17.55;72.18
62680;BME280;68213;40.528;44.712;2023-07-31T04:55:34;80364.28;;;17.59;70.47
62680;BME280;68213;40.528;44.712;2023-07-31T04:56:34;80360.91;;;17.58;70.28
62680;BME280;68213;40.528;44.712;2023-07-31T04:57:35;80365.78;;;17.66;70.06
62680;BME280;68213;40.528;44.712;2023-07-31T04:58:36;80367.94;;;17.72;69.14
62680;BME280;68213;40.528;44.712;2023-07-31T04:59:36;80363.34;;;17.74;69.32
62680;BME280;68213;40.528;44.712;2023-07-31T05:00:37;80358.72;;;17.75;70.74
62680;BME280;68213;40.528;44.712;2023-07-31T05:01:38;80367.38;;;17.75;71.67
62680;BME280;68213;40.528;44.712;2023-07-31T05:02:38;80367.41;;;17.77;69.78
62680;BME280;68213;40.528;44.712;2023-07-31T05:03:39;80368.72;;;17.76;69.48
62680;BME280;68213;40.528;44.712;2023-07-31T05:04:40;80360.47;;;17.66;71.51
62680;BME280;68213;40.528;44.712;2023-07-31T05:05:41;80363.47;;;17.79;71.20
62680;BME280;68213;40.528;44.712;2023-07-31T05:06:42;80367.47;;;17.80;70.63
62680;BME280;68213;40.528;44.712;2023-07-31T05:07:42;80369.56;;;17.83;70.14
62680;BME280;68213;40.528;44.712;2023-07-31T05:08:43;80360.97;;;17.85;71.25
62680;BME280;68213;40.528;44.712;2023-07-31T05:09:44;80365.03;;;17.88;70.89
62680;BME280;68213;40.528;44.712;2023-07-31T05:10:45;80355.31;;;17.97;72.35
62680;BME280;68213;40.528;44.712;2023-07-31T05:11:45;80360.22;;;17.82;70.10
62680;BME280;68213;40.528;44.712;2023-07-31T05:12:46;80358.47;;;17.91;70.72
62680;BME280;68213;40.528;44.712;2023-07-31T05:13:47;80356.00;;;17.97;69.92
62680;BME280;68213;40.528;44.712;2023-07-31T05:14:47;80361.41;;;18.01;69.33
62680;BME280;68213;40.528;44.712;2023-07-31T05:15:48;80348.81;;;18.02;68.95
62680;BME280;68213;40.528;44.712;2023-07-31T05:16:49;80358.88;;;18.05;69.35
62680;BME280;68213;40.528;44.712;2023-07-31T05:17:52;80353.38;;;17.99;70.81
62680;BME280;68213;40.528;44.712;2023-07-31T05:18:53;80351.66;;;18.10;71.19
62680;BME280;68213;40.528;44.712;2023-07-31T05:19:53;80361.16;;;18.17;70.53
62680;BME280;68213;40.528;44.712;2023-07-31T05:20:54;80353.81;;;18.16;71.41
62680;BME280;68213;40.528;44.712;2023-07-31T05:21:55;80354.59;;;18.20;70.73
62680;BME280;68213;40.528;44.712;2023-07-31T05:22:55;80351.88;;;18.18;69.70
62680;BME280;68213;40.528;44.712;2023-07-31T05:23:56;80346.13;;;18.28;69.01
62680;BME280;68213;40.528;44.712;2023-07-31T05:24:57;80355.06;;;18.39;68.42
62680;BME280;68213;40.528;44.712;2023-07-31T05:26:03;80349.09;;;18.41;69.67
62680;BME280;68213;40.528;44.712;2023-07-31T05:27:05;80343.25;;;18.46;69.56
62680;BME280;68213;40.528;44.712;2023-07-31T05:28:06;80356.03;;;18.52;68.32
62680;BME280;68213;40.528;44.712;2023-07-31T05:29:06;80353.41;;;18.54;68.58
62680;BME280;68213;40.528;44.712;2023-07-31T05:30:10;80351.97;;;18.49;67.53
62680;BME280;68213;40.528;44.712;2023-07-31T05:31:11;80352.91;;;18.62;68.12
62680;BME280;68213;40.528;44.712;2023-07-31T05:32:11;80350.44;;;18.68;68.50